Holyoke, Minnesota
Current Conditions -  °F | °C
As of 6:37 AM on Friday 31 Oct 2014 (Local Time) from KCOQ Reporting Station
Overcast Overcast  
Wind Chill: 21°   Ceiling: 2900
Heat Index: 27°   Visibility: 10mi
Dew Point: 16°   Wind: 5mph
Humidity: 64%   Direction: 360°N
Pressure: 30.49"   Gusts: NA
Location:  46.47°N, 92.39°W
Report Text: KCOQ 311137Z AUTO 36004KT 10SM OVC029 M03/M09 A3049 RMK AO2
Loading
Personal Weather Stations






























Interactive Weather Map
Tropical Storm Tracking
New forecast layout! Learn more

10-Day Weather Forecast

Advertisements
Track Severe Weather on mobile